createdAt,value
2023-03-07T00:01:24.945Z,56.30
2023-03-07T00:08:50.554Z,56.30
2023-03-07T00:11:17.460Z,56.30
2023-03-07T00:13:44.505Z,56.30
2023-03-07T00:16:15.027Z,56.30
2023-03-07T00:18:42.570Z,56.40
2023-03-07T00:21:12.323Z,56.30
2023-03-07T00:23:41.765Z,56.60
2023-03-07T00:26:20.775Z,56.40
2023-03-07T00:28:49.411Z,56.50
2023-03-07T00:31:17.254Z,56.50
2023-03-07T00:33:44.373Z,56.80
2023-03-07T00:36:14.688Z,56.90
2023-03-07T00:38:42.396Z,56.80
2023-03-07T00:41:12.445Z,57.20
2023-03-07T00:43:40.205Z,57.30
2023-03-07T00:46:07.699Z,57.50
2023-03-07T00:48:36.668Z,57.70
2023-03-07T00:53:31.939Z,58.10
2023-03-07T00:58:32.083Z,58.20
2023-03-07T01:00:59.103Z,58.40
2023-03-07T01:03:27.318Z,58.60
2023-03-07T01:05:55.696Z,58.70
2023-03-07T01:10:51.036Z,59.30
2023-03-07T01:13:19.439Z,59.20
2023-03-07T01:25:43.525Z,59.80
2023-03-07T01:28:14.048Z,59.70
2023-03-07T01:33:09.958Z,60.30
2023-03-07T01:35:39.849Z,60.30
2023-03-07T01:38:07.029Z,60.50
2023-03-07T01:40:38.594Z,60.50
2023-03-07T01:43:32.256Z,60.70
2023-03-07T01:46:25.206Z,60.90
2023-03-07T01:49:05.584Z,61.00
2023-03-07T01:51:36.421Z,61.20
2023-03-07T01:54:06.390Z,61.40
2023-03-07T01:56:34.761Z,61.70
2023-03-07T02:01:29.222Z,61.60
2023-03-07T02:04:14.683Z,61.90
2023-03-07T02:48:47.734Z,61.90
2023-03-07T02:53:45.922Z,62.40
2023-03-07T02:56:13.076Z,62.50
2023-03-07T02:58:39.915Z,62.60
2023-03-07T03:01:07.284Z,62.70
2023-03-07T03:08:29.406Z,63.00
2023-03-07T03:15:58.295Z,63.10
2023-03-07T03:18:28.569Z,63.20
2023-03-07T03:20:55.454Z,63.30
2023-03-07T03:26:05.161Z,63.20
2023-03-07T03:31:02.034Z,63.20
2023-03-07T03:33:30.421Z,63.20
2023-03-07T03:35:59.273Z,63.20
2023-03-07T03:38:27.010Z,63.20
2023-03-07T03:43:22.867Z,63.70
2023-03-07T03:45:56.736Z,63.60
2023-03-07T03:48:26.040Z,63.60
2023-03-07T03:51:08.882Z,63.60
2023-03-07T03:53:38.245Z,63.60
2023-03-07T03:56:07.055Z,63.60
2023-03-07T03:58:34.778Z,63.50
2023-03-07T04:01:06.377Z,63.50
2023-03-07T04:03:38.439Z,63.60
2023-03-07T04:06:09.054Z,63.70
2023-03-07T04:08:38.206Z,63.60
2023-03-07T04:11:05.966Z,63.80
2023-03-07T04:13:34.307Z,64.20
2023-03-07T04:23:24.853Z,64.20
2023-03-07T04:25:57.277Z,64.30
2023-03-07T04:28:27.045Z,64.00
2023-03-07T04:35:54.344Z,63.40
2023-03-07T04:40:48.534Z,63.50
2023-03-07T04:55:34.211Z,63.30
2023-03-07T05:00:28.787Z,63.20
2023-03-07T05:03:02.289Z,63.40
2023-03-07T05:10:25.336Z,63.40
2023-03-07T05:17:47.879Z,63.50
2023-03-07T05:35:01.997Z,63.40
2023-03-07T05:37:30.330Z,63.20
2023-03-07T06:04:31.826Z,62.80
2023-03-07T06:06:59.864Z,62.80
2023-03-07T06:09:28.157Z,62.80
2023-03-07T06:14:25.726Z,62.60
2023-03-07T06:24:16.363Z,62.50
2023-03-07T06:36:34.226Z,62.50
2023-03-07T06:39:02.241Z,62.40
2023-03-07T06:41:29.242Z,62.40
2023-03-07T06:43:58.764Z,62.50
2023-03-07T06:46:31.500Z,62.50
2023-03-07T06:53:57.842Z,62.40
2023-03-07T06:56:25.806Z,62.50
2023-03-07T06:58:52.681Z,62.60
2023-03-07T07:01:21.826Z,62.50
2023-03-07T07:08:48.648Z,62.50
2023-03-07T07:16:18.241Z,62.50
2023-03-07T07:26:07.896Z,62.50
2023-03-07T07:46:05.682Z,62.30
2023-03-07T07:51:04.401Z,61.90
2023-03-07T07:53:32.047Z,61.80
2023-03-07T08:05:49.117Z,61.30
2023-03-07T08:08:17.712Z,61.30
2023-03-07T08:10:47.249Z,61.10
2023-03-07T08:13:15.942Z,60.90
2023-03-07T08:15:43.351Z,61.00
2023-03-07T08:25:34.292Z,60.60
2023-03-07T08:30:32.440Z,60.50
2023-03-07T08:35:28.328Z,60.40
2023-03-07T08:37:59.825Z,60.50
2023-03-07T08:40:28.848Z,60.40
2023-03-07T08:47:54.796Z,60.00
2023-03-07T08:50:28.217Z,60.10
2023-03-07T08:57:49.885Z,59.80
2023-03-07T09:07:40.009Z,59.30
2023-03-07T09:10:07.431Z,59.20
2023-03-07T09:12:36.097Z,59.20
2023-03-07T09:15:03.018Z,59.30
2023-03-07T09:17:30.426Z,59.30
2023-03-07T09:39:39.580Z,58.40
2023-03-07T09:42:38.013Z,57.90
2023-03-07T09:48:01.563Z,57.80
2023-03-07T09:50:52.731Z,57.50
2023-03-07T09:53:42.273Z,57.40
2023-03-07T09:56:15.761Z,57.30
2023-03-07T09:58:48.756Z,57.20
2023-03-07T10:01:19.948Z,57.00
2023-03-07T10:03:51.740Z,56.90
2023-03-07T10:06:43.193Z,56.80
2023-03-07T10:09:19.585Z,56.70
2023-03-07T10:12:10.018Z,56.50
2023-03-07T10:14:37.056Z,56.30
2023-03-07T10:17:13.533Z,56.20
2023-03-07T10:19:43.832Z,56.00
2023-03-07T10:22:21.900Z,55.80
2023-03-07T10:25:10.915Z,55.40
2023-03-07T10:27:39.132Z,55.10
2023-03-07T10:30:17.797Z,54.90
2023-03-07T10:37:55.169Z,54.50
2023-03-07T10:40:55.603Z,54.20
2023-03-07T10:45:49.918Z,53.70
2023-03-07T10:48:19.718Z,53.40
2023-03-07T10:51:04.457Z,53.10
2023-03-07T10:53:34.892Z,53.10
2023-03-07T10:56:16.612Z,52.80
2023-03-07T10:59:09.601Z,52.90
2023-03-07T11:01:39.236Z,52.60
2023-03-07T11:04:17.765Z,52.50
2023-03-07T11:06:58.943Z,52.50
2023-03-07T11:09:34.282Z,52.60
2023-03-07T11:12:10.165Z,52.70
2023-03-07T11:15:10.327Z,52.70
2023-03-07T11:17:45.430Z,52.80
2023-03-07T11:20:45.633Z,52.30
2023-03-07T11:23:12.450Z,52.80
2023-03-07T11:28:27.548Z,52.50
2023-03-07T11:31:01.803Z,52.30
2023-03-07T11:33:58.713Z,52.30
2023-03-07T11:36:33.430Z,52.30
2023-03-07T11:39:32.353Z,52.10
2023-03-07T11:42:15.772Z,52.20
2023-03-07T11:44:48.162Z,52.10
2023-03-07T11:47:52.188Z,51.90
2023-03-07T11:50:26.560Z,51.90
2023-03-07T11:53:30.243Z,52.00
2023-03-07T12:00:22.378Z,51.70
2023-03-07T12:03:23.502Z,51.40
2023-03-07T12:06:00.791Z,51.30
2023-03-07T12:08:33.827Z,51.00
2023-03-07T12:11:27.222Z,50.90
2023-03-07T12:13:58.834Z,50.90
2023-03-07T12:19:20.353Z,50.50
2023-03-07T12:22:11.874Z,50.40
2023-03-07T12:24:45.315Z,50.10
2023-03-07T12:27:20.039Z,50.00
2023-03-07T12:30:16.895Z,50.00
2023-03-07T12:32:44.205Z,49.90
2023-03-07T12:35:31.975Z,49.80
2023-03-07T12:38:36.723Z,49.90
2023-03-07T12:41:58.721Z,50.00
2023-03-07T12:44:46.202Z,50.20
2023-03-07T12:47:41.781Z,50.30
2023-03-07T12:50:13.118Z,50.30
2023-03-07T12:52:48.192Z,50.50
2023-03-07T12:55:34.663Z,50.50
2023-03-07T12:58:18.087Z,50.60
2023-03-07T13:00:54.658Z,50.60
2023-03-07T13:03:40.722Z,50.60
2023-03-07T13:06:13.841Z,50.60
2023-03-07T13:08:43.281Z,50.60
2023-03-07T13:11:22.729Z,50.60
2023-03-07T13:14:02.231Z,50.60
2023-03-07T13:16:38.082Z,50.60
2023-03-07T13:19:31.164Z,50.80
2023-03-07T13:21:58.618Z,50.90
2023-03-07T13:24:42.950Z,50.90
2023-03-07T13:27:41.104Z,49.00
2023-03-07T13:30:21.602Z,50.90
2023-03-07T13:32:51.584Z,50.90
2023-03-07T13:35:28.265Z,51.00
2023-03-07T13:40:46.721Z,51.00
2023-03-07T13:48:13.303Z,51.20
2023-03-07T13:50:43.175Z,51.30
2023-03-07T13:53:24.987Z,51.30
2023-03-07T13:55:57.757Z,51.30
2023-03-07T13:58:29.151Z,51.40
2023-03-07T14:01:00.442Z,51.40
2023-03-07T14:03:42.470Z,51.50
2023-03-07T14:06:21.754Z,51.50
2023-03-07T14:08:50.230Z,51.90
2023-03-07T14:11:37.751Z,51.70
2023-03-07T14:14:45.618Z,51.70
2023-03-07T14:17:35.622Z,51.80
2023-03-07T14:20:15.678Z,51.70
2023-03-07T14:22:58.366Z,51.70
2023-03-07T14:25:28.080Z,51.80
2023-03-07T14:27:59.504Z,51.90
2023-03-07T14:30:32.588Z,51.70
2023-03-07T14:33:01.223Z,51.70
2023-03-07T14:35:35.154Z,51.70
2023-03-07T14:43:22.730Z,51.70
2023-03-07T14:46:05.277Z,51.80
2023-03-07T14:48:32.092Z,51.70
2023-03-07T14:51:08.901Z,51.80
2023-03-07T14:56:07.987Z,51.70
2023-03-07T14:58:45.599Z,51.70
2023-03-07T15:01:16.246Z,51.80
2023-03-07T15:03:47.653Z,51.70
2023-03-07T15:06:18.072Z,51.70
2023-03-07T15:08:46.903Z,51.70
2023-03-07T15:11:28.847Z,51.70
2023-03-07T15:14:11.582Z,51.80
2023-03-07T15:16:43.596Z,52.00
2023-03-07T15:21:43.975Z,52.40
2023-03-07T15:24:22.836Z,52.40
2023-03-07T15:26:52.294Z,52.50
2023-03-07T15:29:23.194Z,52.70
2023-03-07T15:31:57.555Z,52.90
2023-03-07T15:36:53.497Z,53.10
2023-03-07T15:39:36.813Z,53.20
2023-03-07T15:42:07.994Z,53.30
2023-03-07T15:44:36.542Z,53.40
2023-03-07T15:47:14.578Z,53.50
2023-03-07T15:49:47.628Z,53.60
2023-03-07T15:52:28.556Z,53.70
2023-03-07T15:54:58.395Z,53.80
2023-03-07T15:57:37.178Z,53.90
2023-03-07T16:00:08.853Z,53.90
2023-03-07T16:02:39.686Z,54.00
2023-03-07T16:05:23.023Z,54.00
2023-03-07T16:07:54.596Z,54.10
2023-03-07T16:10:25.520Z,54.20
2023-03-07T16:15:23.117Z,54.30
2023-03-07T16:17:56.323Z,54.40
2023-03-07T16:20:26.154Z,54.40
2023-03-07T16:25:22.389Z,54.50
2023-03-07T16:27:53.871Z,54.50
2023-03-07T16:30:24.895Z,54.50
2023-03-07T16:32:52.289Z,54.50
2023-03-07T16:35:24.457Z,54.50
2023-03-07T16:37:51.857Z,54.50
2023-03-07T16:40:20.309Z,54.60
2023-03-07T16:42:50.378Z,54.60
2023-03-07T16:45:20.168Z,54.70
2023-03-07T16:47:47.884Z,54.70
2023-03-07T16:50:17.233Z,54.70
2023-03-07T16:55:16.292Z,54.70
2023-03-07T16:57:46.238Z,54.70
2023-03-07T17:00:19.276Z,54.70
2023-03-07T17:02:47.365Z,54.60
2023-03-07T17:05:16.734Z,54.70
2023-03-07T17:07:43.746Z,54.70
2023-03-07T17:10:12.180Z,54.70
2023-03-07T17:12:40.237Z,54.70
2023-03-07T17:15:11.072Z,54.70
2023-03-07T17:17:38.006Z,54.70
2023-03-07T17:20:08.782Z,54.70
2023-03-07T17:25:05.661Z,54.60
2023-03-07T17:27:55.958Z,54.50
2023-03-07T17:30:25.359Z,54.40
2023-03-07T17:35:20.724Z,54.30
2023-03-07T17:37:51.102Z,54.30
2023-03-07T17:45:13.950Z,54.20
2023-03-07T17:50:10.702Z,54.00
2023-03-07T17:52:37.700Z,54.00
2023-03-07T17:55:09.613Z,54.00
2023-03-07T17:57:36.971Z,54.00
2023-03-07T18:00:13.199Z,53.90
2023-03-07T18:02:43.684Z,53.90
2023-03-07T18:05:13.546Z,53.90
2023-03-07T18:07:41.588Z,53.90
2023-03-07T18:10:10.308Z,53.80
2023-03-07T18:12:39.245Z,53.80
2023-03-07T18:15:18.074Z,53.80
2023-03-07T18:17:48.800Z,53.70
2023-03-07T18:20:18.321Z,53.70
2023-03-07T18:25:15.680Z,53.70
2023-03-07T18:27:43.212Z,53.80
2023-03-07T18:30:11.877Z,53.70
2023-03-07T18:35:06.595Z,53.60
2023-03-07T18:42:28.100Z,53.50
2023-03-07T18:44:55.057Z,53.50
2023-03-07T18:49:51.241Z,53.40
2023-03-07T19:11:58.512Z,53.20
2023-03-07T19:16:56.469Z,53.30
2023-03-07T19:19:24.302Z,53.20
2023-03-07T19:21:51.780Z,53.20
2023-03-07T19:24:18.887Z,53.20
2023-03-07T19:29:15.981Z,53.10
2023-03-07T19:31:45.856Z,53.10
2023-03-07T19:34:13.579Z,53.10
2023-03-07T19:36:41.703Z,53.10
2023-03-07T19:39:14.859Z,53.10
2023-03-07T19:41:44.928Z,53.10
2023-03-07T19:56:33.737Z,52.90
2023-03-07T19:59:02.356Z,52.80
2023-03-07T20:01:29.701Z,52.80
2023-03-07T20:06:30.010Z,52.80
2023-03-07T20:08:58.008Z,52.70
2023-03-07T20:11:30.222Z,52.70
2023-03-07T20:13:58.968Z,52.70
2023-03-07T20:16:30.216Z,52.60
2023-03-07T20:18:59.558Z,52.70
2023-03-07T20:21:28.336Z,52.70
2023-03-07T20:23:59.560Z,52.70
2023-03-07T20:26:32.038Z,52.70
2023-03-07T20:29:00.437Z,52.80
2023-03-07T20:31:29.145Z,52.80
2023-03-07T20:33:58.563Z,52.60
2023-03-07T20:36:28.915Z,52.60
2023-03-07T20:39:01.315Z,52.60
2023-03-07T20:41:31.291Z,52.60
2023-03-07T20:44:04.167Z,52.70
2023-03-07T20:46:32.480Z,52.60
2023-03-07T20:49:01.171Z,52.50
2023-03-07T20:51:30.971Z,52.50
2023-03-07T20:54:00.681Z,52.50
2023-03-07T20:56:29.575Z,52.50
2023-03-07T20:58:58.421Z,52.50
2023-03-07T21:01:27.639Z,52.50
2023-03-07T21:03:55.173Z,52.50
2023-03-07T21:11:20.761Z,52.40
2023-03-07T21:13:49.419Z,52.40
2023-03-07T21:16:22.213Z,52.30
2023-03-07T21:21:21.902Z,52.30
2023-03-07T21:23:51.153Z,52.30
2023-03-07T21:26:20.184Z,52.30
2023-03-07T21:28:47.884Z,52.30
2023-03-07T21:31:20.829Z,52.20
2023-03-07T21:33:52.817Z,52.20
2023-03-07T21:36:20.448Z,52.20
2023-03-07T21:38:48.466Z,52.20
2023-03-07T21:41:18.802Z,52.20
2023-03-07T21:46:14.430Z,52.10
2023-03-07T21:48:41.931Z,52.00
2023-03-07T21:56:09.351Z,51.90
2023-03-07T22:01:23.323Z,51.90
2023-03-07T22:03:54.196Z,52.70
2023-03-07T22:06:21.112Z,51.90
2023-03-07T22:13:43.330Z,51.80
2023-03-07T22:16:15.674Z,51.80
2023-03-07T22:21:13.981Z,51.80
2023-03-07T22:23:41.523Z,51.70
2023-03-07T22:26:11.235Z,51.60
2023-03-07T22:28:40.593Z,51.70
2023-03-07T22:31:10.597Z,51.60
2023-03-07T22:33:37.897Z,51.60
2023-03-07T22:36:07.562Z,51.60
2023-03-07T22:41:15.625Z,51.70
2023-03-07T22:43:45.681Z,51.70
2023-03-07T22:46:13.552Z,51.70
2023-03-07T22:48:40.809Z,51.70
2023-03-07T22:51:13.648Z,51.70
2023-03-07T22:56:17.495Z,51.60
2023-03-07T23:01:17.977Z,51.60
2023-03-07T23:06:13.183Z,51.60
2023-03-07T23:08:40.655Z,51.60
2023-03-07T23:11:09.121Z,51.80
2023-03-07T23:13:36.041Z,51.80
2023-03-07T23:16:10.402Z,51.50
2023-03-07T23:18:38.228Z,51.50
2023-03-07T23:21:07.120Z,51.50
2023-03-07T23:23:34.317Z,51.60
2023-03-07T23:26:01.508Z,51.50
2023-03-07T23:35:51.457Z,51.30
2023-03-07T23:38:18.725Z,51.30
2023-03-07T23:43:14.485Z,51.30
2023-03-07T23:50:36.299Z,51.50
2023-03-07T23:55:30.651Z,52.40
